createdAt,value
2022-11-27T00:01:39.903Z,96824.31
2022-11-27T00:04:07.120Z,96826.16
2022-11-27T00:06:34.034Z,96825.47
2022-11-27T00:09:01.246Z,96819.38
2022-11-27T00:11:28.637Z,96816.59
2022-11-27T00:13:55.438Z,96821.84
2022-11-27T00:16:22.468Z,96825.31
2022-11-27T00:18:49.557Z,96829.06
2022-11-27T00:21:26.467Z,96828.38
2022-11-27T00:23:53.609Z,96826.06
2022-11-27T00:26:20.194Z,96831.16
2022-11-27T00:28:46.598Z,96825.75
2022-11-27T00:31:14.801Z,96834.63
2022-11-27T00:33:41.237Z,96839.03
2022-11-27T00:36:08.237Z,96841.50
2022-11-27T00:38:38.825Z,96839.88
2022-11-27T00:41:09.783Z,96843.50
2022-11-27T00:43:43.468Z,96838.75
2022-11-27T00:46:10.398Z,96841.22
2022-11-27T00:48:36.959Z,96840.91
2022-11-27T00:51:05.532Z,96842.56
2022-11-27T00:53:32.177Z,96841.75
2022-11-27T00:55:58.680Z,96845.50
2022-11-27T00:58:25.862Z,96839.19
2022-11-27T01:00:55.982Z,96842.66
2022-11-27T01:03:22.745Z,96839.03
2022-11-27T01:05:49.318Z,96844.28
2022-11-27T01:08:15.748Z,96839.34
2022-11-27T01:10:54.442Z,96837.78
2022-11-27T01:13:25.503Z,96841.69
2022-11-27T01:16:05.533Z,96849.13
2022-11-27T01:18:32.095Z,96843.03
2022-11-27T01:20:58.492Z,96846.03
2022-11-27T01:23:25.371Z,96844.91
2022-11-27T01:25:53.829Z,96845.06
2022-11-27T01:28:22.853Z,96837.41
2022-11-27T01:30:49.614Z,96835.31
2022-11-27T01:33:16.436Z,96837.78
2022-11-27T01:35:42.974Z,96835.97
2022-11-27T01:38:09.601Z,96840.41
2022-11-27T01:40:36.026Z,96841.50
2022-11-27T01:43:02.429Z,96843.19
2022-11-27T01:45:28.875Z,96843.19
2022-11-27T01:47:58.708Z,96843.19
2022-11-27T01:50:26.861Z,96838.59
2022-11-27T01:52:55.821Z,96839.28
2022-11-27T01:55:42.725Z,96839.41
2022-11-27T01:58:15.029Z,96838.59
2022-11-27T02:00:41.696Z,96841.22
2022-11-27T02:03:08.146Z,96841.75
2022-11-27T02:05:34.632Z,96839.75
2022-11-27T02:08:03.632Z,96834.19
2022-11-27T02:10:38.013Z,96836.50
2022-11-27T02:13:07.532Z,96841.75
2022-11-27T02:15:52.860Z,96839.66
2022-11-27T02:18:25.170Z,96840.19
2022-11-27T02:21:06.759Z,96847.38
2022-11-27T02:23:36.252Z,96843.78
2022-11-27T02:26:08.710Z,96840.19
2022-11-27T02:28:53.905Z,96847.06
2022-11-27T02:31:29.655Z,96842.28
2022-11-27T02:34:00.282Z,96839.13
2022-11-27T02:36:29.768Z,96835.53
2022-11-27T02:39:09.059Z,96842.44
2022-11-27T02:41:42.445Z,96842.44
2022-11-27T02:44:10.026Z,96840.78
2022-11-27T02:46:37.558Z,96840.78
2022-11-27T02:49:06.450Z,96837.50
2022-11-27T02:51:39.124Z,96848.81
2022-11-27T02:54:07.396Z,96853.63
2022-11-27T02:56:34.767Z,96851.16
2022-11-27T02:59:06.452Z,96858.78
2022-11-27T03:01:36.224Z,96850.91
2022-11-27T03:04:06.400Z,96862.41
2022-11-27T03:06:48.865Z,96848.59
2022-11-27T03:09:18.940Z,96861.72
2022-11-27T03:11:45.713Z,96857.16
2022-11-27T03:14:12.565Z,96862.41
2022-11-27T03:16:57.526Z,96866.00
2022-11-27T03:19:47.315Z,96864.03
2022-11-27T03:22:13.906Z,96861.41
2022-11-27T03:24:41.014Z,96858.50
2022-11-27T03:27:08.731Z,96863.06
2022-11-27T03:29:35.347Z,96857.81
2022-11-27T03:32:02.171Z,96860.59
2022-11-27T03:34:29.104Z,96863.38
2022-11-27T03:36:55.495Z,96862.41
2022-11-27T03:39:22.889Z,96858.03
2022-11-27T03:41:49.582Z,96861.34
2022-11-27T03:44:34.536Z,96861.03
2022-11-27T03:47:12.662Z,96863.66
2022-11-27T03:49:57.089Z,96862.19
2022-11-27T03:52:35.789Z,96856.63
2022-11-27T03:55:10.330Z,96865.19
2022-11-27T03:57:45.951Z,96865.03
2022-11-27T04:00:12.725Z,96867.66
2022-11-27T04:02:46.905Z,96873.72
2022-11-27T04:05:13.996Z,96868.75
2022-11-27T04:07:40.682Z,96870.88
2022-11-27T04:10:07.657Z,96867.13
2022-11-27T04:12:34.069Z,96867.97
2022-11-27T04:15:00.548Z,96871.69
2022-11-27T04:17:27.319Z,96873.50
2022-11-27T04:19:53.785Z,96864.97
2022-11-27T04:22:20.243Z,96882.13
2022-11-27T04:24:46.623Z,96883.91
2022-11-27T04:27:13.048Z,96867.22
2022-11-27T04:29:39.463Z,96870.63
2022-11-27T04:32:05.985Z,96872.16
2022-11-27T04:34:32.746Z,96875.88
2022-11-27T04:36:59.493Z,96875.22
2022-11-27T04:39:26.201Z,96874.56
2022-11-27T04:41:52.606Z,96865.84
2022-11-27T04:44:19.060Z,96874.97
2022-11-27T04:46:45.482Z,96875.81
2022-11-27T04:49:11.958Z,96873.88
2022-11-27T04:51:38.345Z,96874.19
2022-11-27T04:54:04.752Z,96881.13
2022-11-27T04:56:31.144Z,96868.28
2022-11-27T04:58:57.552Z,96870.84
2022-11-27T05:01:24.111Z,96870.16
2022-11-27T05:03:50.546Z,96873.09
2022-11-27T05:06:17.054Z,96872.69
2022-11-27T05:08:43.534Z,96878.53
2022-11-27T05:11:14.060Z,96875.25
2022-11-27T05:13:40.852Z,96872.63
2022-11-27T05:16:07.452Z,96871.34
2022-11-27T05:18:34.025Z,96872.31
2022-11-27T05:21:01.741Z,96882.13
2022-11-27T05:23:28.418Z,96886.84
2022-11-27T05:25:54.865Z,96883.97
2022-11-27T05:28:26.410Z,96874.16
2022-11-27T05:30:53.364Z,96875.81
2022-11-27T05:33:19.742Z,96886.91
2022-11-27T05:35:46.230Z,96888.53
2022-11-27T05:38:13.111Z,96892.97
2022-11-27T05:40:39.572Z,96901.25
2022-11-27T05:43:06.202Z,96894.06
2022-11-27T05:45:32.603Z,96884.97
2022-11-27T05:47:58.971Z,96884.13
2022-11-27T05:50:25.431Z,96886.59
2022-11-27T05:52:51.822Z,96891.59
2022-11-27T05:55:18.220Z,96892.31
2022-11-27T05:57:44.594Z,96890.69
2022-11-27T06:00:11.382Z,96888.19
2022-11-27T06:02:38.010Z,96894.66
2022-11-27T06:05:04.554Z,96894.13
2022-11-27T06:07:31.368Z,96895.47
2022-11-27T06:09:57.845Z,96894.38
2022-11-27T06:12:24.247Z,96898.63
2022-11-27T06:14:50.659Z,96898.25
2022-11-27T06:17:17.049Z,96899.53
2022-11-27T06:19:43.459Z,96901.16
2022-11-27T06:22:09.808Z,96906.41
2022-11-27T06:24:36.253Z,96905.31
2022-11-27T06:27:02.717Z,96912.78
2022-11-27T06:29:29.091Z,96907.44
2022-11-27T06:31:55.557Z,96907.84
2022-11-27T06:34:21.950Z,96919.41
2022-11-27T06:36:49.365Z,96920.66
2022-11-27T06:39:15.736Z,96920.66
2022-11-27T06:41:43.350Z,96920.56
2022-11-27T06:44:10.600Z,96914.78
2022-11-27T06:46:36.994Z,96923.47
2022-11-27T06:49:03.410Z,96914.34
2022-11-27T06:51:30.638Z,96911.06
2022-11-27T06:53:58.633Z,96914.34
2022-11-27T06:56:26.200Z,96915.47
2022-11-27T06:58:53.733Z,96913.09
2022-11-27T07:01:21.155Z,96920.66
2022-11-27T07:03:47.975Z,96912.25
2022-11-27T07:06:15.345Z,96907.53
2022-11-27T07:08:42.200Z,96905.97
2022-11-27T07:11:10.583Z,96901.56
2022-11-27T07:13:37.032Z,96901.56
2022-11-27T07:16:05.163Z,96903.94
2022-11-27T07:18:34.975Z,96895.69
2022-11-27T07:21:01.358Z,96899.13
2022-11-27T07:23:27.767Z,96904.47
2022-11-27T07:25:54.135Z,96909.88
2022-11-27T07:28:20.546Z,96900.78
2022-11-27T07:30:54.141Z,96899.41
2022-11-27T07:33:20.506Z,96910.03
2022-11-27T07:35:46.871Z,96909.31
2022-11-27T07:38:13.320Z,96909.72
2022-11-27T07:40:39.878Z,96910.41
2022-11-27T07:43:06.262Z,96906.50
2022-11-27T07:45:32.712Z,96907.88
2022-11-27T07:47:59.409Z,96907.56
2022-11-27T07:50:25.821Z,96906.75
2022-11-27T07:52:52.194Z,96911.19
2022-11-27T07:55:18.577Z,96898.22
2022-11-27T07:57:44.963Z,96902.34
2022-11-27T08:00:11.544Z,96900.41
2022-11-27T08:02:37.997Z,96901.38
2022-11-27T08:05:09.567Z,96900.16
2022-11-27T08:07:38.785Z,96896.84
2022-11-27T08:10:05.403Z,96904.03
2022-11-27T08:12:31.777Z,96904.72
2022-11-27T08:14:58.216Z,96897.22
2022-11-27T08:17:24.605Z,96900.69
2022-11-27T08:19:51.005Z,96902.94
2022-11-27T08:22:19.543Z,96900.19
2022-11-27T08:24:46.582Z,96901.84
2022-11-27T08:27:12.947Z,96903.22
2022-11-27T08:29:39.529Z,96901.94
2022-11-27T08:32:06.260Z,96901.50
2022-11-27T08:34:32.695Z,96905.50
2022-11-27T08:36:59.155Z,96900.09
2022-11-27T08:39:26.761Z,96913.91
2022-11-27T08:41:53.821Z,96915.03
2022-11-27T08:44:20.562Z,96906.63
2022-11-27T08:46:46.938Z,96916.97
2022-11-27T08:49:13.520Z,96915.84
2022-11-27T08:51:39.945Z,96919.13
2022-11-27T08:54:06.552Z,96924.94
2022-11-27T08:56:32.948Z,96919.22
2022-11-27T08:58:59.442Z,96923.81
2022-11-27T09:01:27.144Z,96920.22
2022-11-27T09:03:53.604Z,96918.56
2022-11-27T09:06:23.305Z,96920.22
2022-11-27T09:08:50.337Z,96921.84
2022-11-27T09:11:17.847Z,96916.34
2022-11-27T09:13:44.769Z,96911.31
2022-11-27T09:16:12.735Z,96911.88
2022-11-27T09:18:39.801Z,96909.91
2022-11-27T09:21:07.753Z,96909.63
2022-11-27T09:23:34.145Z,96912.09
2022-11-27T09:26:01.437Z,96907.94
2022-11-27T09:28:31.332Z,96912.97
2022-11-27T09:30:59.454Z,96907.16
2022-11-27T09:33:26.668Z,96900.75
2022-11-27T09:35:53.420Z,96898.81
2022-11-27T09:38:19.808Z,96893.44
2022-11-27T09:40:49.882Z,96892.44
2022-11-27T09:43:17.006Z,96891.19
2022-11-27T09:45:45.479Z,96893.34
2022-11-27T09:48:16.224Z,96886.84
2022-11-27T09:50:50.292Z,96880.47
2022-11-27T09:53:40.003Z,96884.91
2022-11-27T09:56:11.432Z,96879.66
2022-11-27T09:58:39.820Z,96868.69
2022-11-27T10:01:17.315Z,96877.72
2022-11-27T10:03:44.922Z,96886.69
2022-11-27T10:06:11.290Z,96877.72
2022-11-27T10:08:55.768Z,96873.25
2022-11-27T10:11:30.613Z,96878.50
2022-11-27T10:14:03.464Z,96877.72
2022-11-27T10:16:44.051Z,96876.03
2022-11-27T10:19:26.372Z,96866.53
2022-11-27T10:22:15.426Z,96869.16
2022-11-27T10:24:58.012Z,96869.16
2022-11-27T10:27:28.436Z,96867.47
2022-11-27T10:29:56.252Z,96862.13
2022-11-27T10:32:54.148Z,96860.28
2022-11-27T10:35:17.446Z,96861.28
2022-11-27T10:37:47.227Z,96859.72
2022-11-27T10:40:13.790Z,96862.56
2022-11-27T10:43:04.739Z,96852.88
2022-11-27T10:45:34.264Z,96857.47
2022-11-27T10:48:00.689Z,96850.53
2022-11-27T10:50:27.062Z,96853.84
2022-11-27T10:52:55.880Z,96847.91
2022-11-27T10:55:42.527Z,96853.78
2022-11-27T10:58:15.847Z,96850.78
2022-11-27T11:00:42.328Z,96854.72
2022-11-27T11:03:15.854Z,96849.72
2022-11-27T11:06:11.774Z,96843.56
2022-11-27T11:08:29.401Z,96846.72
2022-11-27T11:11:00.931Z,96847.38
2022-11-27T11:13:28.952Z,96842.13
2022-11-27T11:16:04.682Z,96850.84
2022-11-27T11:18:32.792Z,96857.59
2022-11-27T11:21:01.287Z,96846.75
2022-11-27T11:23:30.847Z,96836.72
2022-11-27T11:25:59.748Z,96840.50
2022-11-27T11:28:26.493Z,96843.03
2022-11-27T11:30:58.590Z,96844.38
2022-11-27T11:33:25.708Z,96838.53
2022-11-27T11:35:53.615Z,96838.25
2022-11-27T11:38:25.311Z,96834.63
2022-11-27T11:41:02.771Z,96839.56
2022-11-27T11:43:35.242Z,96842.88
2022-11-27T11:46:08.449Z,96839.88
2022-11-27T11:48:36.323Z,96826.91
2022-11-27T11:51:08.845Z,96829.69
2022-11-27T11:53:37.601Z,96830.50
2022-11-27T11:56:03.945Z,96833.63
2022-11-27T11:58:33.494Z,96831.00
2022-11-27T12:01:26.589Z,96829.06
2022-11-27T12:03:56.809Z,96828.25
2022-11-27T12:06:31.748Z,96829.69
2022-11-27T12:09:15.253Z,96816.09
2022-11-27T12:11:53.842Z,96822.16
2022-11-27T12:14:26.942Z,96825.47
2022-11-27T12:17:14.246Z,96821.13
2022-11-27T12:19:49.638Z,96823.00
2022-11-27T12:22:22.268Z,96813.50
2022-11-27T12:24:55.581Z,96818.97
2022-11-27T12:27:40.903Z,96818.34
2022-11-27T12:30:19.667Z,96820.00
2022-11-27T12:33:01.496Z,96821.75
2022-11-27T12:35:32.467Z,96814.47
2022-11-27T12:38:17.409Z,96814.31
2022-11-27T12:41:04.046Z,96806.63
2022-11-27T12:43:32.187Z,96811.63
2022-11-27T12:46:11.252Z,96811.31
2022-11-27T12:48:49.809Z,96802.59
2022-11-27T12:51:26.162Z,96800.28
2022-11-27T12:53:56.891Z,96805.38
2022-11-27T12:56:24.645Z,96814.00
2022-11-27T12:58:57.219Z,96811.84
2022-11-27T13:01:26.805Z,96802.31
2022-11-27T13:04:06.076Z,96798.13
2022-11-27T13:06:36.010Z,96800.44
2022-11-27T13:09:05.347Z,96802.75
2022-11-27T13:11:33.384Z,96794.19
2022-11-27T13:14:06.023Z,96796.28
2022-11-27T13:16:41.206Z,96802.69
2022-11-27T13:19:13.472Z,96797.59
2022-11-27T13:21:41.436Z,96797.44
2022-11-27T13:24:11.749Z,96791.34
2022-11-27T13:27:04.798Z,96789.72
2022-11-27T13:29:40.140Z,96798.41
2022-11-27T13:32:07.910Z,96794.13
2022-11-27T13:34:42.498Z,96797.44
2022-11-27T13:37:09.924Z,96799.06
2022-11-27T13:39:36.295Z,96804.31
2022-11-27T13:42:07.420Z,96801.84
2022-11-27T13:44:37.452Z,96801.03
2022-11-27T13:47:15.573Z,96803.38
2022-11-27T13:49:43.504Z,96800.75
2022-11-27T13:52:09.902Z,96796.00
2022-11-27T13:54:36.498Z,96802.06
2022-11-27T13:57:09.968Z,96803.50
2022-11-27T13:59:39.275Z,96799.38
2022-11-27T14:02:07.302Z,96806.28
2022-11-27T14:04:34.278Z,96805.69
2022-11-27T14:07:03.586Z,96801.75
2022-11-27T14:09:35.225Z,96795.53
2022-11-27T14:12:02.371Z,96804.38
2022-11-27T14:14:29.805Z,96801.09
2022-11-27T14:16:59.454Z,96798.75
2022-11-27T14:19:34.720Z,96796.81
2022-11-27T14:22:01.842Z,96788.63
2022-11-27T14:24:51.113Z,96796.50
2022-11-27T14:27:17.479Z,96785.19
2022-11-27T14:29:44.020Z,96789.47
2022-11-27T14:32:11.780Z,96777.16
2022-11-27T14:34:38.223Z,96789.97
2022-11-27T14:37:04.609Z,96778.81
2022-11-27T14:39:35.786Z,96777.16
2022-11-27T14:42:03.146Z,96781.59
2022-11-27T14:44:30.184Z,96778.44
2022-11-27T14:46:58.608Z,96776.63
2022-11-27T14:49:26.773Z,96773.84
2022-11-27T14:51:53.829Z,96782.72
2022-11-27T14:54:32.337Z,96782.06
2022-11-27T14:56:58.951Z,96783.31
2022-11-27T14:59:25.738Z,96787.38
2022-11-27T15:02:01.545Z,96785.88
2022-11-27T15:04:29.499Z,96783.41
2022-11-27T15:06:57.491Z,96784.53
2022-11-27T15:09:33.578Z,96777.66
2022-11-27T15:12:26.552Z,96790.94
2022-11-27T15:15:08.099Z,96769.94
2022-11-27T15:17:36.417Z,96776.28
2022-11-27T15:20:04.174Z,96778.91
2022-11-27T15:22:33.384Z,96770.81
2022-11-27T15:25:05.058Z,96770.97
2022-11-27T15:27:47.273Z,96764.75
2022-11-27T15:30:17.582Z,96763.78
2022-11-27T15:32:46.972Z,96773.31
2022-11-27T15:35:14.448Z,96766.03
2022-11-27T15:37:41.032Z,96765.69
2022-11-27T15:40:22.326Z,96772.19
2022-11-27T15:42:48.770Z,96774.28
2022-11-27T15:45:15.214Z,96773.44
2022-11-27T15:47:41.625Z,96772.50
2022-11-27T15:50:13.729Z,96773.31
2022-11-27T15:52:40.176Z,96775.13
2022-11-27T15:55:06.926Z,96768.50
2022-11-27T15:57:33.295Z,96776.38
2022-11-27T15:59:59.764Z,96772.81
2022-11-27T16:02:30.299Z,96776.22
2022-11-27T16:04:56.756Z,96769.03
2022-11-27T16:07:23.165Z,96771.13
2022-11-27T16:09:49.616Z,96763.03
2022-11-27T16:12:16.042Z,96767.25
2022-11-27T16:14:42.799Z,96764.75
2022-11-27T16:17:09.423Z,96759.22
2022-11-27T16:19:35.794Z,96753.00
2022-11-27T16:22:02.168Z,96756.16
2022-11-27T16:24:28.567Z,96755.19
2022-11-27T16:26:54.980Z,96760.56
2022-11-27T16:29:21.392Z,96758.94
2022-11-27T16:31:47.901Z,96753.97
2022-11-27T16:34:14.676Z,96750.53
2022-11-27T16:36:43.750Z,96750.97
2022-11-27T16:39:13.036Z,96757.06
2022-11-27T16:41:39.575Z,96755.25
2022-11-27T16:44:13.015Z,96747.41
2022-11-27T16:46:39.368Z,96749.03
2022-11-27T16:49:09.078Z,96742.00
2022-11-27T16:51:37.269Z,96745.28
2022-11-27T16:54:05.383Z,96749.72
2022-11-27T16:56:33.237Z,96742.94
2022-11-27T16:59:03.119Z,96737.84
2022-11-27T17:01:31.828Z,96746.03
2022-11-27T17:03:59.641Z,96740.09
2022-11-27T17:06:27.539Z,96743.72
2022-11-27T17:08:54.572Z,96747.16
2022-11-27T17:11:22.484Z,96747.66
2022-11-27T17:13:49.497Z,96743.19
2022-11-27T17:16:15.934Z,96743.91
2022-11-27T17:18:42.958Z,96736.50
2022-11-27T17:21:10.998Z,96738.81
2022-11-27T17:23:38.043Z,96737.34
2022-11-27T17:26:08.124Z,96738.66
2022-11-27T17:28:34.832Z,96735.78
2022-11-27T17:31:01.270Z,96729.84
2022-11-27T17:33:27.838Z,96728.19
2022-11-27T17:35:54.442Z,96733.44
2022-11-27T17:38:20.812Z,96724.91
2022-11-27T17:40:47.228Z,96737.03
2022-11-27T17:43:13.594Z,96737.03
2022-11-27T17:45:40.685Z,96738.53
2022-11-27T17:48:07.139Z,96735.63
2022-11-27T17:50:33.531Z,96733.81
2022-11-27T17:52:59.926Z,96731.88
2022-11-27T17:55:26.333Z,96722.50
2022-11-27T17:57:53.795Z,96727.91
2022-11-27T18:00:20.334Z,96727.53
2022-11-27T18:02:46.708Z,96732.91
2022-11-27T18:05:13.092Z,96725.19
2022-11-27T18:07:39.549Z,96727.13
2022-11-27T18:10:06.400Z,96725.34
2022-11-27T18:12:32.766Z,96726.47
2022-11-27T18:15:01.528Z,96724.97
2022-11-27T18:17:28.463Z,96727.44
2022-11-27T18:19:57.148Z,96720.94
2022-11-27T18:22:24.210Z,96715.53
2022-11-27T18:24:50.580Z,96724.22
2022-11-27T18:27:17.663Z,96715.00
2022-11-27T18:29:47.271Z,96717.63
2022-11-27T18:32:15.020Z,96708.94
2022-11-27T18:34:41.596Z,96711.69
2022-11-27T18:37:08.548Z,96711.69
2022-11-27T18:39:35.895Z,96707.28
2022-11-27T18:42:03.486Z,96706.16
2022-11-27T18:44:29.873Z,96705.88
2022-11-27T18:46:56.424Z,96704.22
2022-11-27T18:49:23.309Z,96693.72
2022-11-27T18:51:50.895Z,96710.59
2022-11-27T18:54:17.336Z,96703.97
2022-11-27T18:56:43.731Z,96699.88
2022-11-27T18:59:10.135Z,96701.81
2022-11-27T19:01:41.868Z,96698.22
2022-11-27T19:04:09.517Z,96698.53
2022-11-27T19:06:36.821Z,96694.63
2022-11-27T19:09:03.865Z,96688.41
2022-11-27T19:11:31.060Z,96689.09
2022-11-27T19:13:57.850Z,96695.97
2022-11-27T19:16:26.381Z,96696.81
2022-11-27T19:18:53.410Z,96683.00
2022-11-27T19:21:21.703Z,96691.34
2022-11-27T19:23:48.535Z,96677.69
2022-11-27T19:26:16.562Z,96677.84
2022-11-27T19:28:44.172Z,96681.16
2022-11-27T19:31:12.056Z,96676.44
2022-11-27T19:33:39.588Z,96672.00
2022-11-27T19:36:08.608Z,96661.81
2022-11-27T19:38:35.514Z,96669.00
2022-11-27T19:41:02.435Z,96668.31
2022-11-27T19:43:28.846Z,96661.59
2022-11-27T19:45:55.291Z,96665.06
2022-11-27T19:48:23.562Z,96667.38
2022-11-27T19:50:51.653Z,96662.66
2022-11-27T19:53:18.205Z,96657.69
2022-11-27T19:55:44.609Z,96652.31
2022-11-27T19:58:12.389Z,96653.13
2022-11-27T20:00:38.800Z,96647.88
2022-11-27T20:03:05.214Z,96652.16
2022-11-27T20:05:31.582Z,96656.28
2022-11-27T20:07:59.565Z,96651.19
2022-11-27T20:10:26.342Z,96655.91
2022-11-27T20:12:52.710Z,96657.19
2022-11-27T20:15:19.656Z,96653.72
2022-11-27T20:17:46.021Z,96654.25
2022-11-27T20:20:13.414Z,96650.81
2022-11-27T20:22:39.835Z,96650.44
2022-11-27T20:25:21.773Z,96645.66
2022-11-27T20:27:48.334Z,96643.31
2022-11-27T20:30:14.784Z,96644.81
2022-11-27T20:32:41.231Z,96637.09
2022-11-27T20:35:08.114Z,96649.53
2022-11-27T20:37:35.030Z,96653.13
2022-11-27T20:40:01.563Z,96647.91
2022-11-27T20:42:27.990Z,96653.28
2022-11-27T20:44:54.390Z,96652.47
2022-11-27T20:47:20.859Z,96659.63
2022-11-27T20:49:47.346Z,96652.88
2022-11-27T20:52:14.661Z,96662.56
2022-11-27T20:54:41.077Z,96652.38
2022-11-27T20:57:08.824Z,96653.34
2022-11-27T20:59:35.250Z,96655.97
2022-11-27T21:02:02.745Z,96649.38
2022-11-27T21:04:29.233Z,96654.91
2022-11-27T21:06:57.162Z,96648.69
2022-11-27T21:09:24.305Z,96646.31
2022-11-27T21:11:50.783Z,96644.06
2022-11-27T21:14:17.806Z,96642.94
2022-11-27T21:16:48.045Z,96641.00
2022-11-27T21:19:16.601Z,96638.22
2022-11-27T21:21:43.122Z,96628.03
2022-11-27T21:24:09.619Z,96622.13
2022-11-27T21:26:36.045Z,96624.06
2022-11-27T21:29:02.585Z,96624.22
2022-11-27T21:31:35.899Z,96629.19
2022-11-27T21:34:04.565Z,96628.19
2022-11-27T21:36:32.297Z,96620.34
2022-11-27T21:38:59.620Z,96627.19
2022-11-27T21:41:26.407Z,96623.25
2022-11-27T21:43:57.092Z,96626.03
2022-11-27T21:46:24.671Z,96619.81
2022-11-27T21:48:51.703Z,96618.97
2022-11-27T21:51:21.102Z,96620.09
2022-11-27T21:53:48.513Z,96624.50
2022-11-27T21:56:16.258Z,96622.88
2022-11-27T21:58:43.042Z,96618.75
2022-11-27T22:01:11.590Z,96613.19
2022-11-27T22:03:42.344Z,96610.72
2022-11-27T22:06:16.128Z,96615.91
2022-11-27T22:08:43.628Z,96608.34
2022-11-27T22:11:11.559Z,96605.78
2022-11-27T22:13:38.326Z,96607.97
2022-11-27T22:16:13.012Z,96603.56
2022-11-27T22:18:39.863Z,96606.69
2022-11-27T22:21:06.909Z,96610.31
2022-11-27T22:23:33.668Z,96606.16
2022-11-27T22:26:01.279Z,96606.31
2022-11-27T22:28:28.037Z,96606.16
2022-11-27T22:30:54.469Z,96609.63
2022-11-27T22:33:20.884Z,96609.47
2022-11-27T22:35:47.284Z,96610.16
2022-11-27T22:38:13.684Z,96599.66
2022-11-27T22:40:40.397Z,96597.56
2022-11-27T22:43:06.762Z,96592.50
2022-11-27T22:45:33.284Z,96597.06
2022-11-27T22:47:59.679Z,96595.22
2022-11-27T22:50:26.112Z,96590.81
2022-11-27T22:52:55.766Z,96590.31
2022-11-27T22:55:24.623Z,96589.78
2022-11-27T22:57:51.033Z,96581.38
2022-11-27T23:00:17.523Z,96585.13
2022-11-27T23:02:43.994Z,96581.69
2022-11-27T23:05:10.403Z,96577.97
2022-11-27T23:07:36.843Z,96583.19
2022-11-27T23:10:03.529Z,96576.28
2022-11-27T23:12:29.892Z,96579.28
2022-11-27T23:14:56.290Z,96573.78
2022-11-27T23:17:22.658Z,96578.72
2022-11-27T23:19:49.110Z,96573.47
2022-11-27T23:22:15.535Z,96571.00
2022-11-27T23:24:42.205Z,96570.47
2022-11-27T23:27:08.808Z,96578.50
2022-11-27T23:29:35.252Z,96573.53
2022-11-27T23:32:01.726Z,96569.41
2022-11-27T23:34:28.762Z,96574.13
2022-11-27T23:36:55.127Z,96566.59
2022-11-27T23:39:21.506Z,96563.97
2022-11-27T23:41:49.556Z,96566.13
2022-11-27T23:44:16.167Z,96562.03
2022-11-27T23:46:42.841Z,96564.50
2022-11-27T23:49:09.220Z,96562.81
2022-11-27T23:51:35.677Z,96556.09
2022-11-27T23:54:05.913Z,96555.94
2022-11-27T23:56:32.450Z,96553.34
2022-11-27T23:58:59.185Z,96555.13
